sensor_id;sensor_type;location;lat;lon;timestamp;pressure;altitude;pressure_sealevel;temperature;humidity
50682;BME280;36779;52.168;20.878;2022-12-07T00:02:02;99775.66;;;1.16;80.18
50682;BME280;36779;52.168;20.878;2022-12-07T00:04:34;99773.55;;;1.19;80.23
50682;BME280;36779;52.168;20.878;2022-12-07T00:07:08;99774.34;;;1.22;80.24
50682;BME280;36779;52.168;20.878;2022-12-07T00:09:39;99770.98;;;1.22;80.27
50682;BME280;36779;52.168;20.878;2022-12-07T00:12:09;99770.14;;;1.20;80.17
50682;BME280;36779;52.168;20.878;2022-12-07T00:14:38;99766.58;;;1.16;80.15
50682;BME280;36779;52.168;20.878;2022-12-07T00:17:07;99761.98;;;1.10;79.98
50682;BME280;36779;52.168;20.878;2022-12-07T00:19:36;99759.88;;;1.03;79.84
50682;BME280;36779;52.168;20.878;2022-12-07T00:22:06;99757.50;;;1.00;79.93
50682;BME280;36779;52.168;20.878;2022-12-07T00:24:35;99760.11;;;1.00;79.89
50682;BME280;36779;52.168;20.878;2022-12-07T00:27:09;99755.71;;;1.02;79.95
50682;BME280;36779;52.168;20.878;2022-12-07T00:29:38;99755.45;;;1.06;80.06
50682;BME280;36779;52.168;20.878;2022-12-07T00:32:07;99754.12;;;1.12;80.15
50682;BME280;36779;52.168;20.878;2022-12-07T00:34:39;99753.77;;;1.14;79.93
50682;BME280;36779;52.168;20.878;2022-12-07T00:37:11;99752.73;;;1.16;80.00
50682;BME280;36779;52.168;20.878;2022-12-07T00:39:41;99750.45;;;1.19;79.90
50682;BME280;36779;52.168;20.878;2022-12-07T00:42:11;99749.85;;;1.24;80.13
50682;BME280;36779;52.168;20.878;2022-12-07T00:44:40;99751.45;;;1.28;80.20
50682;BME280;36779;52.168;20.878;2022-12-07T00:47:13;99751.54;;;1.27;80.13
50682;BME280;36779;52.168;20.878;2022-12-07T00:49:41;99750.15;;;1.29;80.23
50682;BME280;36779;52.168;20.878;2022-12-07T00:52:13;99749.91;;;1.30;80.12
50682;BME280;36779;52.168;20.878;2022-12-07T00:54:42;99746.38;;;1.31;80.07
50682;BME280;36779;52.168;20.878;2022-12-07T00:57:16;99746.39;;;1.30;79.88
50682;BME280;36779;52.168;20.878;2022-12-07T00:59:45;99744.83;;;1.28;79.80
50682;BME280;36779;52.168;20.878;2022-12-07T01:02:16;99743.80;;;1.30;79.96
50682;BME280;36779;52.168;20.878;2022-12-07T01:04:48;99741.71;;;1.34;80.02
50682;BME280;36779;52.168;20.878;2022-12-07T01:07:18;99742.89;;;1.39;80.11
50682;BME280;36779;52.168;20.878;2022-12-07T01:09:49;99744.59;;;1.45;80.07
50682;BME280;36779;52.168;20.878;2022-12-07T01:12:17;99742.91;;;1.48;80.13
50682;BME280;36779;52.168;20.878;2022-12-07T01:14:46;99740.40;;;1.49;79.99
50682;BME280;36779;52.168;20.878;2022-12-07T01:17:15;99736.73;;;1.51;80.09
50682;BME280;36779;52.168;20.878;2022-12-07T01:19:44;99728.58;;;1.52;80.08
50682;BME280;36779;52.168;20.878;2022-12-07T01:22:13;99725.08;;;1.48;79.94
50682;BME280;36779;52.168;20.878;2022-12-07T01:24:41;99731.10;;;1.45;80.01
50682;BME280;36779;52.168;20.878;2022-12-07T01:27:10;99732.34;;;1.45;79.88
50682;BME280;36779;52.168;20.878;2022-12-07T01:29:38;99732.96;;;1.44;79.78
50682;BME280;36779;52.168;20.878;2022-12-07T01:32:08;99734.80;;;1.45;79.92
50682;BME280;36779;52.168;20.878;2022-12-07T01:34:36;99736.56;;;1.49;79.98
50682;BME280;36779;52.168;20.878;2022-12-07T01:37:06;99733.40;;;1.53;79.94
50682;BME280;36779;52.168;20.878;2022-12-07T01:39:35;99734.72;;;1.59;80.05
50682;BME280;36779;52.168;20.878;2022-12-07T01:42:04;99733.38;;;1.67;80.21
50682;BME280;36779;52.168;20.878;2022-12-07T01:47:35;99728.23;;;1.79;80.11
50682;BME280;36779;52.168;20.878;2022-12-07T01:50:05;99727.22;;;1.78;80.05
50682;BME280;36779;52.168;20.878;2022-12-07T01:52:36;99727.23;;;1.78;80.05
50682;BME280;36779;52.168;20.878;2022-12-07T01:55:14;99727.89;;;1.76;80.18
50682;BME280;36779;52.168;20.878;2022-12-07T01:57:52;99729.17;;;1.76;80.16
50682;BME280;36779;52.168;20.878;2022-12-07T02:00:22;99726.44;;;1.73;80.03
50682;BME280;36779;52.168;20.878;2022-12-07T02:02:57;99726.23;;;1.71;80.00
50682;BME280;36779;52.168;20.878;2022-12-07T02:05:28;99720.08;;;1.72;80.09
50682;BME280;36779;52.168;20.878;2022-12-07T02:07:58;99721.48;;;1.74;80.10
50682;BME280;36779;52.168;20.878;2022-12-07T02:10:30;99719.46;;;1.75;80.05
50682;BME280;36779;52.168;20.878;2022-12-07T02:13:02;99719.24;;;1.78;80.00
50682;BME280;36779;52.168;20.878;2022-12-07T02:15:43;99720.55;;;1.78;80.03
50682;BME280;36779;52.168;20.878;2022-12-07T02:18:19;99720.34;;;1.81;80.12
50682;BME280;36779;52.168;20.878;2022-12-07T02:20:57;99720.95;;;1.82;79.97
50682;BME280;36779;52.168;20.878;2022-12-07T02:23:41;99716.61;;;1.82;80.08
50682;BME280;36779;52.168;20.878;2022-12-07T02:26:29;99720.71;;;1.81;80.12
50682;BME280;36779;52.168;20.878;2022-12-07T02:29:11;99721.27;;;1.76;79.98
50682;BME280;36779;52.168;20.878;2022-12-07T02:31:46;99718.90;;;1.71;79.93
50682;BME280;36779;52.168;20.878;2022-12-07T02:34:21;99716.36;;;1.70;80.05
50682;BME280;36779;52.168;20.878;2022-12-07T02:37:01;99715.95;;;1.68;79.97
50682;BME280;36779;52.168;20.878;2022-12-07T02:39:40;99710.59;;;1.67;79.99
50682;BME280;36779;52.168;20.878;2022-12-07T02:42:15;99712.42;;;1.69;80.04
50682;BME280;36779;52.168;20.878;2022-12-07T02:44:46;99714.64;;;1.72;80.08
50682;BME280;36779;52.168;20.878;2022-12-07T02:47:17;99711.77;;;1.74;80.19
50682;BME280;36779;52.168;20.878;2022-12-07T02:49:48;99714.77;;;1.78;80.13
50682;BME280;36779;52.168;20.878;2022-12-07T02:52:18;99713.86;;;1.81;80.26
50682;BME280;36779;52.168;20.878;2022-12-07T02:54:46;99712.48;;;1.85;80.37
50682;BME280;36779;52.168;20.878;2022-12-07T02:57:34;99712.15;;;1.85;80.26
50682;BME280;36779;52.168;20.878;2022-12-07T03:00:09;99710.75;;;1.83;80.25
50682;BME280;36779;52.168;20.878;2022-12-07T03:02:49;99710.00;;;1.77;80.02
50682;BME280;36779;52.168;20.878;2022-12-07T03:05:46;99709.17;;;1.72;80.10
50682;BME280;36779;52.168;20.878;2022-12-07T03:08:24;99710.80;;;1.69;80.04
50682;BME280;36779;52.168;20.878;2022-12-07T03:11:00;99706.81;;;1.69;80.10
50682;BME280;36779;52.168;20.878;2022-12-07T03:13:42;99708.22;;;1.71;80.12
50682;BME280;36779;52.168;20.878;2022-12-07T03:16:15;99709.19;;;1.72;80.14
50682;BME280;36779;52.168;20.878;2022-12-07T03:18:48;99706.34;;;1.72;80.15
50682;BME280;36779;52.168;20.878;2022-12-07T03:21:23;99702.25;;;1.71;80.18
50682;BME280;36779;52.168;20.878;2022-12-07T03:23:58;99699.92;;;1.67;80.18
50682;BME280;36779;52.168;20.878;2022-12-07T03:26:34;99699.91;;;1.63;80.04
50682;BME280;36779;52.168;20.878;2022-12-07T03:29:07;99699.51;;;1.59;80.05
50682;BME280;36779;52.168;20.878;2022-12-07T03:31:40;99693.64;;;1.53;79.94
50682;BME280;36779;52.168;20.878;2022-12-07T03:34:13;99693.05;;;1.52;80.07
50682;BME280;36779;52.168;20.878;2022-12-07T03:36:47;99692.83;;;1.53;80.06
50682;BME280;36779;52.168;20.878;2022-12-07T03:39:24;99691.39;;;1.53;80.17
50682;BME280;36779;52.168;20.878;2022-12-07T03:41:55;99689.27;;;1.53;80.04
50682;BME280;36779;52.168;20.878;2022-12-07T03:44:28;99689.54;;;1.52;80.02
50682;BME280;36779;52.168;20.878;2022-12-07T03:47:09;99686.35;;;1.52;80.27
50682;BME280;36779;52.168;20.878;2022-12-07T03:49:46;99682.52;;;1.52;80.23
50682;BME280;36779;52.168;20.878;2022-12-07T03:52:22;99681.62;;;1.51;80.20
50682;BME280;36779;52.168;20.878;2022-12-07T03:54:57;99676.52;;;1.44;80.12
50682;BME280;36779;52.168;20.878;2022-12-07T03:57:30;99674.99;;;1.39;80.06
50682;BME280;36779;52.168;20.878;2022-12-07T04:00:00;99675.09;;;1.38;80.19
50682;BME280;36779;52.168;20.878;2022-12-07T04:02:40;99675.92;;;1.36;80.01
50682;BME280;36779;52.168;20.878;2022-12-07T04:05:13;99675.08;;;1.33;80.16
50682;BME280;36779;52.168;20.878;2022-12-07T04:07:42;99670.58;;;1.33;80.06
50682;BME280;36779;52.168;20.878;2022-12-07T04:10:11;99669.15;;;1.33;80.10
50682;BME280;36779;52.168;20.878;2022-12-07T04:12:40;99667.80;;;1.35;80.06
50682;BME280;36779;52.168;20.878;2022-12-07T04:15:10;99670.94;;;1.35;80.11
50682;BME280;36779;52.168;20.878;2022-12-07T04:17:39;99666.20;;;1.33;80.15
50682;BME280;36779;52.168;20.878;2022-12-07T04:20:10;99670.05;;;1.33;80.16
50682;BME280;36779;52.168;20.878;2022-12-07T04:22:39;99668.10;;;1.29;80.15
50682;BME280;36779;52.168;20.878;2022-12-07T04:25:08;99668.23;;;1.25;80.11
50682;BME280;36779;52.168;20.878;2022-12-07T04:27:37;99668.39;;;1.21;79.95
50682;BME280;36779;52.168;20.878;2022-12-07T04:30:09;99666.63;;;1.18;80.12
50682;BME280;36779;52.168;20.878;2022-12-07T04:32:38;99666.43;;;1.19;80.03
50682;BME280;36779;52.168;20.878;2022-12-07T04:35:08;99661.87;;;1.19;80.13
50682;BME280;36779;52.168;20.878;2022-12-07T04:37:36;99663.27;;;1.18;80.19
50682;BME280;36779;52.168;20.878;2022-12-07T04:40:09;99659.20;;;1.19;80.06
50682;BME280;36779;52.168;20.878;2022-12-07T04:42:39;99661.06;;;1.20;80.13
50682;BME280;36779;52.168;20.878;2022-12-07T04:45:11;99663.31;;;1.21;80.15
50682;BME280;36779;52.168;20.878;2022-12-07T04:47:47;99663.13;;;1.18;80.19
50682;BME280;36779;52.168;20.878;2022-12-07T04:50:17;99664.73;;;1.13;80.08
50682;BME280;36779;52.168;20.878;2022-12-07T04:52:46;99659.02;;;1.08;80.05
50682;BME280;36779;52.168;20.878;2022-12-07T04:55:15;99658.58;;;1.05;80.10
50682;BME280;36779;52.168;20.878;2022-12-07T04:57:44;99660.15;;;1.03;80.04
50682;BME280;36779;52.168;20.878;2022-12-07T05:00:13;99659.70;;;1.02;80.08
50682;BME280;36779;52.168;20.878;2022-12-07T05:02:42;99659.01;;;0.99;79.93
50682;BME280;36779;52.168;20.878;2022-12-07T05:05:11;99657.70;;;0.98;79.97
50682;BME280;36779;52.168;20.878;2022-12-07T05:07:39;99652.25;;;0.96;79.96
50682;BME280;36779;52.168;20.878;2022-12-07T05:10:10;99647.81;;;0.95;79.98
50682;BME280;36779;52.168;20.878;2022-12-07T05:12:38;99648.89;;;0.94;80.07
50682;BME280;36779;52.168;20.878;2022-12-07T05:15:10;99645.72;;;0.97;80.19
50682;BME280;36779;52.168;20.878;2022-12-07T05:17:39;99642.73;;;0.95;80.16
50682;BME280;36779;52.168;20.878;2022-12-07T05:20:10;99641.06;;;0.94;80.19
50682;BME280;36779;52.168;20.878;2022-12-07T05:22:39;99638.45;;;0.91;80.18
50682;BME280;36779;52.168;20.878;2022-12-07T05:25:09;99636.21;;;0.89;80.12
50682;BME280;36779;52.168;20.878;2022-12-07T05:27:38;99639.36;;;0.84;80.19
50682;BME280;36779;52.168;20.878;2022-12-07T05:30:09;99641.10;;;0.82;80.13
50682;BME280;36779;52.168;20.878;2022-12-07T05:32:37;99644.02;;;0.81;80.06
50682;BME280;36779;52.168;20.878;2022-12-07T05:35:08;99641.52;;;0.79;79.98
50682;BME280;36779;52.168;20.878;2022-12-07T05:37:36;99638.95;;;0.78;80.07
50682;BME280;36779;52.168;20.878;2022-12-07T05:40:08;99640.27;;;0.79;80.21
50682;BME280;36779;52.168;20.878;2022-12-07T05:42:40;99640.79;;;0.82;80.18
50682;BME280;36779;52.168;20.878;2022-12-07T05:45:10;99644.80;;;0.82;80.01
50682;BME280;36779;52.168;20.878;2022-12-07T05:47:39;99647.02;;;0.78;80.04
50682;BME280;36779;52.168;20.878;2022-12-07T05:50:10;99648.85;;;0.77;80.17
50682;BME280;36779;52.168;20.878;2022-12-07T05:52:46;99648.70;;;0.72;80.00
50682;BME280;36779;52.168;20.878;2022-12-07T05:55:16;99650.27;;;0.67;80.08
50682;BME280;36779;52.168;20.878;2022-12-07T05:57:47;99649.34;;;0.63;80.06
50682;BME280;36779;52.168;20.878;2022-12-07T06:00:35;99647.42;;;0.61;80.05
50682;BME280;36779;52.168;20.878;2022-12-07T06:03:04;99646.08;;;0.60;79.99
50682;BME280;36779;52.168;20.878;2022-12-07T06:05:32;99645.89;;;0.61;80.04
50682;BME280;36779;52.168;20.878;2022-12-07T06:08:01;99647.76;;;0.61;80.00
50682;BME280;36779;52.168;20.878;2022-12-07T06:10:39;99644.15;;;0.60;80.02
50682;BME280;36779;52.168;20.878;2022-12-07T06:13:08;99644.86;;;0.60;79.98
50682;BME280;36779;52.168;20.878;2022-12-07T06:15:38;99645.20;;;0.60;79.92
50682;BME280;36779;52.168;20.878;2022-12-07T06:18:09;99643.71;;;0.59;80.01
50682;BME280;36779;52.168;20.878;2022-12-07T06:20:43;99642.80;;;0.60;80.09
50682;BME280;36779;52.168;20.878;2022-12-07T06:23:13;99643.09;;;0.56;79.97
50682;BME280;36779;52.168;20.878;2022-12-07T06:25:46;99636.91;;;0.52;80.14
50682;BME280;36779;52.168;20.878;2022-12-07T06:28:15;99634.39;;;0.49;80.14
50682;BME280;36779;52.168;20.878;2022-12-07T06:30:43;99634.92;;;0.46;80.00
50682;BME280;36779;52.168;20.878;2022-12-07T06:33:15;99632.63;;;0.46;80.14
50682;BME280;36779;52.168;20.878;2022-12-07T06:35:47;99636.27;;;0.47;80.15
50682;BME280;36779;52.168;20.878;2022-12-07T06:38:16;99633.28;;;0.47;79.81
50682;BME280;36779;52.168;20.878;2022-12-07T06:40:44;99636.27;;;0.49;80.06
50682;BME280;36779;52.168;20.878;2022-12-07T06:43:14;99633.18;;;0.51;80.13
50682;BME280;36779;52.168;20.878;2022-12-07T06:45:42;99632.30;;;0.53;80.17
50682;BME280;36779;52.168;20.878;2022-12-07T06:48:11;99639.02;;;0.54;80.25
50682;BME280;36779;52.168;20.878;2022-12-07T06:50:40;99635.80;;;0.55;80.20
50682;BME280;36779;52.168;20.878;2022-12-07T06:53:09;99639.16;;;0.55;80.22
50682;BME280;36779;52.168;20.878;2022-12-07T06:55:38;99637.83;;;0.52;80.09
50682;BME280;36779;52.168;20.878;2022-12-07T06:58:07;99636.04;;;0.48;80.06
50682;BME280;36779;52.168;20.878;2022-12-07T07:00:35;99635.38;;;0.45;80.08
50682;BME280;36779;52.168;20.878;2022-12-07T07:03:04;99640.40;;;0.45;80.09
50682;BME280;36779;52.168;20.878;2022-12-07T07:05:33;99637.27;;;0.45;80.08
50682;BME280;36779;52.168;20.878;2022-12-07T07:08:02;99639.98;;;0.46;80.05
50682;BME280;36779;52.168;20.878;2022-12-07T07:10:50;99641.73;;;0.46;80.10
50682;BME280;36779;52.168;20.878;2022-12-07T07:13:19;99639.67;;;0.48;80.13
50682;BME280;36779;52.168;20.878;2022-12-07T07:15:47;99638.38;;;0.49;80.13
50682;BME280;36779;52.168;20.878;2022-12-07T07:18:16;99638.95;;;0.51;80.23
50682;BME280;36779;52.168;20.878;2022-12-07T07:20:44;99638.61;;;0.51;80.20
50682;BME280;36779;52.168;20.878;2022-12-07T07:23:13;99638.76;;;0.51;80.12
50682;BME280;36779;52.168;20.878;2022-12-07T07:25:42;99636.85;;;0.51;80.28
50682;BME280;36779;52.168;20.878;2022-12-07T07:28:10;99635.24;;;0.49;80.20
50682;BME280;36779;52.168;20.878;2022-12-07T07:30:39;99640.54;;;0.46;80.17
50682;BME280;36779;52.168;20.878;2022-12-07T07:33:08;99637.95;;;0.45;80.27
50682;BME280;36779;52.168;20.878;2022-12-07T07:35:37;99641.02;;;0.46;80.05
50682;BME280;36779;52.168;20.878;2022-12-07T07:38:07;99644.41;;;0.48;80.18
50682;BME280;36779;52.168;20.878;2022-12-07T07:40:37;99646.26;;;0.49;80.14
50682;BME280;36779;52.168;20.878;2022-12-07T07:43:05;99643.77;;;0.49;80.09
50682;BME280;36779;52.168;20.878;2022-12-07T07:45:34;99645.26;;;0.53;80.08
50682;BME280;36779;52.168;20.878;2022-12-07T07:48:06;99640.73;;;0.55;80.11
50682;BME280;36779;52.168;20.878;2022-12-07T07:50:52;99643.20;;;0.57;80.24
50682;BME280;36779;52.168;20.878;2022-12-07T07:53:24;99643.29;;;0.58;80.22
50682;BME280;36779;52.168;20.878;2022-12-07T07:55:58;99642.86;;;0.57;80.14
50682;BME280;36779;52.168;20.878;2022-12-07T07:58:27;99642.64;;;0.55;80.09
50682;BME280;36779;52.168;20.878;2022-12-07T08:00:56;99646.48;;;0.55;80.27
50682;BME280;36779;52.168;20.878;2022-12-07T08:03:26;99641.42;;;0.57;80.30
50682;BME280;36779;52.168;20.878;2022-12-07T08:06:01;99640.59;;;0.59;80.16
50682;BME280;36779;52.168;20.878;2022-12-07T08:08:29;99643.69;;;0.59;80.15
50682;BME280;36779;52.168;20.878;2022-12-07T08:58:20;99658.46;;;1.18;80.48
50682;BME280;36779;52.168;20.878;2022-12-07T09:00:50;99659.45;;;1.23;80.69
50682;BME280;36779;52.168;20.878;2022-12-07T09:03:19;99659.23;;;1.26;80.58
50682;BME280;36779;52.168;20.878;2022-12-07T09:05:48;99655.42;;;1.27;80.63
50682;BME280;36779;52.168;20.878;2022-12-07T09:08:17;99656.19;;;1.31;80.64
50682;BME280;36779;52.168;20.878;2022-12-07T09:10:46;99654.41;;;1.36;80.59
50682;BME280;36779;52.168;20.878;2022-12-07T09:13:17;99647.39;;;1.43;80.69
50682;BME280;36779;52.168;20.878;2022-12-07T09:15:46;99644.02;;;1.48;80.53
50682;BME280;36779;52.168;20.878;2022-12-07T09:18:15;99641.73;;;1.54;80.53
50682;BME280;36779;52.168;20.878;2022-12-07T09:20:47;99640.17;;;1.62;80.66
50682;BME280;36779;52.168;20.878;2022-12-07T09:23:19;99637.52;;;1.70;80.58
50682;BME280;36779;52.168;20.878;2022-12-07T09:25:49;99631.79;;;1.76;80.65
50682;BME280;36779;52.168;20.878;2022-12-07T09:28:18;99625.86;;;1.79;80.58
50682;BME280;36779;52.168;20.878;2022-12-07T09:30:48;99628.33;;;1.81;80.68
50682;BME280;36779;52.168;20.878;2022-12-07T09:33:43;99627.19;;;1.82;80.57
50682;BME280;36779;52.168;20.878;2022-12-07T09:36:12;99625.09;;;1.82;80.62
50682;BME280;36779;52.168;20.878;2022-12-07T09:38:42;99625.36;;;1.83;80.56
50682;BME280;36779;52.168;20.878;2022-12-07T09:41:11;99623.88;;;1.86;80.50
50682;BME280;36779;52.168;20.878;2022-12-07T09:43:43;99621.52;;;1.89;80.47
50682;BME280;36779;52.168;20.878;2022-12-07T09:46:14;99624.98;;;1.93;80.61
50682;BME280;36779;52.168;20.878;2022-12-07T09:48:46;99626.65;;;1.96;80.56
50682;BME280;36779;52.168;20.878;2022-12-07T09:51:22;99626.45;;;1.96;80.58
50682;BME280;36779;52.168;20.878;2022-12-07T09:54:00;99624.23;;;1.95;80.54
50682;BME280;36779;52.168;20.878;2022-12-07T09:56:33;99624.10;;;1.95;80.65
50682;BME280;36779;52.168;20.878;2022-12-07T09:59:13;99622.61;;;1.96;80.47
50682;BME280;36779;52.168;20.878;2022-12-07T10:01:52;99614.55;;;1.98;80.55
50682;BME280;36779;52.168;20.878;2022-12-07T10:04:33;99613.61;;;2.01;80.54
50682;BME280;36779;52.168;20.878;2022-12-07T10:07:03;99613.02;;;2.06;80.66
50682;BME280;36779;52.168;20.878;2022-12-07T10:09:33;99610.73;;;2.10;80.47
50682;BME280;36779;52.168;20.878;2022-12-07T10:12:07;99611.39;;;2.15;80.54
50682;BME280;36779;52.168;20.878;2022-12-07T10:14:39;99615.65;;;2.19;80.68
50682;BME280;36779;52.168;20.878;2022-12-07T10:17:34;99614.50;;;2.20;80.50
50682;BME280;36779;52.168;20.878;2022-12-07T10:20:22;99614.87;;;2.22;80.70
50682;BME280;36779;52.168;20.878;2022-12-07T10:23:07;99613.80;;;2.24;80.53
50682;BME280;36779;52.168;20.878;2022-12-07T10:25:43;99614.55;;;2.25;80.59
50682;BME280;36779;52.168;20.878;2022-12-07T10:28:14;99610.98;;;2.26;80.58
50682;BME280;36779;52.168;20.878;2022-12-07T10:30:50;99612.66;;;2.27;80.45
50682;BME280;36779;52.168;20.878;2022-12-07T10:33:30;99610.64;;;2.30;80.54
50682;BME280;36779;52.168;20.878;2022-12-07T10:36:01;99612.91;;;2.32;80.65
50682;BME280;36779;52.168;20.878;2022-12-07T10:38:47;99608.01;;;2.30;80.49
50682;BME280;36779;52.168;20.878;2022-12-07T10:41:17;99612.35;;;2.27;80.39
50682;BME280;36779;52.168;20.878;2022-12-07T10:43:56;99611.54;;;2.24;80.41
50682;BME280;36779;52.168;20.878;2022-12-07T10:46:59;99611.83;;;2.22;80.50
50682;BME280;36779;52.168;20.878;2022-12-07T10:49:44;99611.05;;;2.25;80.44
50682;BME280;36779;52.168;20.878;2022-12-07T10:52:29;99607.11;;;2.28;80.53
50682;BME280;36779;52.168;20.878;2022-12-07T10:55:13;99605.94;;;2.32;80.44
50682;BME280;36779;52.168;20.878;2022-12-07T10:57:53;99608.74;;;2.36;80.47
50682;BME280;36779;52.168;20.878;2022-12-07T11:00:39;99607.55;;;2.40;80.56
50682;BME280;36779;52.168;20.878;2022-12-07T11:03:31;99606.19;;;2.44;80.59
50682;BME280;36779;52.168;20.878;2022-12-07T11:06:12;99608.51;;;2.43;80.60
50682;BME280;36779;52.168;20.878;2022-12-07T11:09:06;99605.04;;;2.41;80.52
50682;BME280;36779;52.168;20.878;2022-12-07T11:11:51;99604.25;;;2.40;80.50
50682;BME280;36779;52.168;20.878;2022-12-07T11:14:31;99603.60;;;2.39;80.57
50682;BME280;36779;52.168;20.878;2022-12-07T11:17:09;99604.90;;;2.38;80.41
50682;BME280;36779;52.168;20.878;2022-12-07T11:19:52;99604.29;;;2.37;80.38
50682;BME280;36779;52.168;20.878;2022-12-07T11:22:35;99604.25;;;2.35;80.32
50682;BME280;36779;52.168;20.878;2022-12-07T11:25:20;99600.54;;;2.31;80.43
50682;BME280;36779;52.168;20.878;2022-12-07T11:28:09;99601.55;;;2.28;80.43
50682;BME280;36779;52.168;20.878;2022-12-07T11:30:50;99598.86;;;2.24;80.43
50682;BME280;36779;52.168;20.878;2022-12-07T11:33:41;99595.30;;;2.23;80.41
50682;BME280;36779;52.168;20.878;2022-12-07T11:36:36;99594.36;;;2.26;80.54
50682;BME280;36779;52.168;20.878;2022-12-07T11:39:15;99593.80;;;2.28;80.53
50682;BME280;36779;52.168;20.878;2022-12-07T11:41:48;99593.63;;;2.32;80.45
50682;BME280;36779;52.168;20.878;2022-12-07T11:44:29;99589.70;;;2.35;80.55
50682;BME280;36779;52.168;20.878;2022-12-07T11:47:05;99587.02;;;2.35;80.52
50682;BME280;36779;52.168;20.878;2022-12-07T11:49:53;99585.17;;;2.35;80.45
50682;BME280;36779;52.168;20.878;2022-12-07T11:52:36;99585.42;;;2.34;80.49
50682;BME280;36779;52.168;20.878;2022-12-07T11:55:16;99580.14;;;2.32;80.48
50682;BME280;36779;52.168;20.878;2022-12-07T11:57:52;99577.48;;;2.30;80.36
50682;BME280;36779;52.168;20.878;2022-12-07T12:00:22;99579.14;;;2.32;80.32
50682;BME280;36779;52.168;20.878;2022-12-07T12:02:59;99582.84;;;2.36;80.58
50682;BME280;36779;52.168;20.878;2022-12-07T12:05:31;99581.17;;;2.37;80.42
50682;BME280;36779;52.168;20.878;2022-12-07T12:08:06;99582.86;;;2.35;80.40
50682;BME280;36779;52.168;20.878;2022-12-07T12:11:15;99580.63;;;2.35;80.31
50682;BME280;36779;52.168;20.878;2022-12-07T12:14:05;99576.05;;;2.31;80.39
50682;BME280;36779;52.168;20.878;2022-12-07T12:17:27;99574.80;;;2.25;80.37
50682;BME280;36779;52.168;20.878;2022-12-07T12:20:13;99572.00;;;2.19;80.39
50682;BME280;36779;52.168;20.878;2022-12-07T12:22:47;99571.80;;;2.15;80.33
50682;BME280;36779;52.168;20.878;2022-12-07T12:25:21;99567.94;;;2.15;80.33
50682;BME280;36779;52.168;20.878;2022-12-07T12:28:01;99563.43;;;2.20;80.36
50682;BME280;36779;52.168;20.878;2022-12-07T12:30:35;99560.94;;;2.25;80.42
50682;BME280;36779;52.168;20.878;2022-12-07T12:33:12;99559.73;;;2.27;80.41
50682;BME280;36779;52.168;20.878;2022-12-07T12:35:47;99556.48;;;2.28;80.52
50682;BME280;36779;52.168;20.878;2022-12-07T12:38:50;99561.06;;;2.30;80.46
50682;BME280;36779;52.168;20.878;2022-12-07T12:41:53;99562.41;;;2.26;80.44
50682;BME280;36779;52.168;20.878;2022-12-07T12:47:51;99556.96;;;2.18;80.38
50682;BME280;36779;52.168;20.878;2022-12-07T12:50:23;99551.86;;;2.16;80.48
50682;BME280;36779;52.168;20.878;2022-12-07T12:53:12;99550.46;;;2.14;80.24
50682;BME280;36779;52.168;20.878;2022-12-07T12:56:20;99550.22;;;2.15;80.22
50682;BME280;36779;52.168;20.878;2022-12-07T12:59:36;99552.60;;;2.20;80.56
50682;BME280;36779;52.168;20.878;2022-12-07T13:02:21;99550.92;;;2.17;80.31
50682;BME280;36779;52.168;20.878;2022-12-07T13:05:02;99549.70;;;2.11;80.26
50682;BME280;36779;52.168;20.878;2022-12-07T13:08:03;99546.49;;;2.05;80.36
50682;BME280;36779;52.168;20.878;2022-12-07T13:10:42;99549.01;;;2.00;80.41
50682;BME280;36779;52.168;20.878;2022-12-07T13:13:37;99549.50;;;1.98;80.27
50682;BME280;36779;52.168;20.878;2022-12-07T13:22:47;99540.80;;;2.04;80.36
50682;BME280;36779;52.168;20.878;2022-12-07T13:25:26;99537.13;;;2.06;80.43
50682;BME280;36779;52.168;20.878;2022-12-07T13:28:02;99536.72;;;2.06;80.42
50682;BME280;36779;52.168;20.878;2022-12-07T13:30:39;99535.38;;;2.04;80.32
50682;BME280;36779;52.168;20.878;2022-12-07T13:33:17;99535.19;;;1.99;80.27
50682;BME280;36779;52.168;20.878;2022-12-07T13:35:47;99537.77;;;1.96;80.40
50682;BME280;36779;52.168;20.878;2022-12-07T13:38:27;99544.05;;;1.94;80.32
50682;BME280;36779;52.168;20.878;2022-12-07T13:41:16;99545.85;;;1.92;80.21
50682;BME280;36779;52.168;20.878;2022-12-07T13:43:49;99544.83;;;1.91;80.27
50682;BME280;36779;52.168;20.878;2022-12-07T13:46:31;99544.70;;;1.91;80.22
50682;BME280;36779;52.168;20.878;2022-12-07T13:49:20;99548.11;;;1.90;80.22
50682;BME280;36779;52.168;20.878;2022-12-07T13:51:53;99549.98;;;1.86;80.18
50682;BME280;36779;52.168;20.878;2022-12-07T13:54:23;99550.39;;;1.81;80.25
50682;BME280;36779;52.168;20.878;2022-12-07T13:56:54;99548.29;;;1.77;80.30
50682;BME280;36779;52.168;20.878;2022-12-07T13:59:28;99547.19;;;1.75;80.34
50682;BME280;36779;52.168;20.878;2022-12-07T14:02:18;99543.76;;;1.73;80.19
50682;BME280;36779;52.168;20.878;2022-12-07T14:04:50;99549.63;;;1.69;80.22
50682;BME280;36779;52.168;20.878;2022-12-07T14:07:23;99553.80;;;1.65;80.10
50682;BME280;36779;52.168;20.878;2022-12-07T14:09:57;99558.31;;;1.61;80.11
50682;BME280;36779;52.168;20.878;2022-12-07T14:12:35;99556.46;;;1.58;80.17
50682;BME280;36779;52.168;20.878;2022-12-07T14:15:16;99555.63;;;1.56;80.12
50682;BME280;36779;52.168;20.878;2022-12-07T14:17:55;99555.45;;;1.51;80.06
50682;BME280;36779;52.168;20.878;2022-12-07T14:20:39;99553.33;;;1.45;80.08
50682;BME280;36779;52.168;20.878;2022-12-07T14:23:24;99551.55;;;1.41;80.13
50682;BME280;36779;52.168;20.878;2022-12-07T14:25:54;99553.86;;;1.38;80.16
50682;BME280;36779;52.168;20.878;2022-12-07T14:28:43;99557.77;;;1.38;80.21
50682;BME280;36779;52.168;20.878;2022-12-07T14:31:12;99557.00;;;1.37;80.05
50682;BME280;36779;52.168;20.878;2022-12-07T14:33:52;99554.34;;;1.35;80.05
50682;BME280;36779;52.168;20.878;2022-12-07T14:36:49;99551.33;;;1.38;80.17
50682;BME280;36779;52.168;20.878;2022-12-07T14:39:21;99551.34;;;1.33;80.02
50682;BME280;36779;52.168;20.878;2022-12-07T14:41:54;99552.55;;;1.29;80.02